createdAt,value
2017-06-27T00:00:39.930Z,96.30
2017-06-27T00:03:07.386Z,95.70
2017-06-27T00:05:34.854Z,95.50
2017-06-27T00:08:02.313Z,96.40
2017-06-27T00:10:30.547Z,96.40
2017-06-27T00:12:58.010Z,96.40
2017-06-27T00:15:25.471Z,96.70
2017-06-27T00:17:53.051Z,97.20
2017-06-27T00:20:20.608Z,96.80
2017-06-27T00:22:48.075Z,96.40
2017-06-27T00:25:16.294Z,96.00
2017-06-27T00:27:43.757Z,96.00
2017-06-27T00:30:11.258Z,96.50
2017-06-27T00:32:38.722Z,97.20
2017-06-27T00:35:06.174Z,98.40
2017-06-27T00:37:33.658Z,99.10
2017-06-27T00:40:01.110Z,99.30
2017-06-27T00:42:28.563Z,97.60
2017-06-27T00:44:56.021Z,99.00
2017-06-27T00:47:23.547Z,98.30
2017-06-27T00:49:51.022Z,98.10
2017-06-27T00:52:19.236Z,99.90
2017-06-27T00:54:46.694Z,99.80
2017-06-27T00:57:14.151Z,98.70
2017-06-27T00:59:41.631Z,98.20
2017-06-27T01:02:09.102Z,98.20
2017-06-27T01:04:36.567Z,97.60
2017-06-27T01:07:04.023Z,98.10
2017-06-27T01:09:31.572Z,98.90
2017-06-27T01:11:59.129Z,98.50
2017-06-27T01:14:26.586Z,98.50
2017-06-27T01:16:54.046Z,98.80
2017-06-27T01:19:21.600Z,98.60
2017-06-27T01:21:49.070Z,99.00
2017-06-27T01:24:17.290Z,98.60
2017-06-27T01:26:44.790Z,98.90
2017-06-27T01:29:12.242Z,98.90
2017-06-27T01:31:39.707Z,99.20
2017-06-27T01:34:07.926Z,99.90
2017-06-27T01:36:35.430Z,99.90
2017-06-27T01:39:02.891Z,99.90
2017-06-27T01:41:30.347Z,99.90
2017-06-27T01:43:57.813Z,99.90
2017-06-27T01:46:25.350Z,99.90
2017-06-27T01:48:52.914Z,99.90
2017-06-27T01:51:20.365Z,99.90
2017-06-27T01:53:47.826Z,99.90
2017-06-27T01:56:15.282Z,99.90
2017-06-27T01:58:42.746Z,99.50
2017-06-27T02:01:10.198Z,99.70
2017-06-27T02:03:37.660Z,99.50
2017-06-27T02:06:05.109Z,98.80
2017-06-27T02:08:32.583Z,99.40
2017-06-27T02:11:00.834Z,99.40
2017-06-27T02:13:28.286Z,99.40
2017-06-27T02:15:55.754Z,99.70
2017-06-27T02:18:23.205Z,99.10
2017-06-27T02:20:50.862Z,98.10
2017-06-27T02:23:18.320Z,99.70
2017-06-27T02:25:45.885Z,98.60
2017-06-27T02:28:13.338Z,98.30
2017-06-27T02:30:40.806Z,98.60
2017-06-27T02:33:08.262Z,98.70
2017-06-27T02:35:36.531Z,98.60
2017-06-27T02:38:03.986Z,98.30
2017-06-27T02:40:31.449Z,98.50
2017-06-27T02:42:58.907Z,98.30
2017-06-27T02:45:26.387Z,99.50
2017-06-27T02:47:53.846Z,99.40
2017-06-27T02:50:21.306Z,99.10
2017-06-27T02:52:48.826Z,99.30
2017-06-27T02:55:16.284Z,99.60
2017-06-27T02:57:43.755Z,99.90
2017-06-27T03:00:12.022Z,99.90
2017-06-27T03:02:40.257Z,99.90
2017-06-27T03:05:07.719Z,99.90
2017-06-27T03:07:35.178Z,99.90
2017-06-27T03:10:02.655Z,99.30
2017-06-27T03:12:30.122Z,98.80
2017-06-27T03:14:58.378Z,99.40
2017-06-27T03:17:25.862Z,99.20
2017-06-27T03:19:54.090Z,99.60
2017-06-27T03:22:21.553Z,99.60
2017-06-27T03:24:49.018Z,99.60
2017-06-27T03:27:16.473Z,99.00
2017-06-27T03:29:43.947Z,98.60
2017-06-27T03:32:11.397Z,99.40
2017-06-27T03:34:38.867Z,99.30
2017-06-27T03:37:07.091Z,99.30
2017-06-27T03:39:34.562Z,99.40
2017-06-27T03:42:02.006Z,99.00
2017-06-27T03:44:29.499Z,99.20
2017-06-27T03:46:57.054Z,99.90
2017-06-27T03:49:24.514Z,99.90
2017-06-27T03:51:52.069Z,98.70
2017-06-27T03:54:19.529Z,98.90
2017-06-27T03:56:46.990Z,98.30
2017-06-27T03:59:14.449Z,98.30
2017-06-27T04:01:41.920Z,99.70
2017-06-27T04:04:10.134Z,99.40
2017-06-27T04:06:37.596Z,99.40
2017-06-27T04:09:05.045Z,99.70
2017-06-27T04:11:32.503Z,99.90
2017-06-27T04:13:59.954Z,99.10
2017-06-27T04:16:27.418Z,99.10
2017-06-27T04:18:54.869Z,98.10
2017-06-27T04:21:22.343Z,97.50
2017-06-27T04:23:49.802Z,97.90
2017-06-27T04:26:17.263Z,97.90
2017-06-27T04:28:44.826Z,98.30
2017-06-27T07:32:36.294Z,84.20
2017-06-27T07:35:03.851Z,86.20
2017-06-27T07:37:31.311Z,87.20
2017-06-27T07:39:58.863Z,85.50
2017-06-27T07:42:26.346Z,82.80
2017-06-27T07:44:54.593Z,80.70
2017-06-27T07:47:22.054Z,80.70
2017-06-27T07:49:49.516Z,79.10
2017-06-27T07:52:16.970Z,76.20
2017-06-27T07:54:44.439Z,76.40
2017-06-27T07:57:12.668Z,72.10
2017-06-27T07:59:40.125Z,72.00
2017-06-27T08:02:07.606Z,70.50
2017-06-27T08:04:35.162Z,68.90
2017-06-27T08:07:02.614Z,70.10
2017-06-27T08:09:30.182Z,68.50
2017-06-27T08:11:57.644Z,66.60
2017-06-27T08:14:25.122Z,66.70
2017-06-27T08:16:53.334Z,66.50
2017-06-27T08:19:20.831Z,66.60
2017-06-27T08:21:48.294Z,65.80
2017-06-27T08:24:15.747Z,66.60
2017-06-27T08:26:43.290Z,66.90
2017-06-27T08:29:10.748Z,64.80
2017-06-27T08:31:38.310Z,64.30
2017-06-27T08:34:05.764Z,62.80
2017-06-27T08:36:33.231Z,61.70
2017-06-27T08:39:00.683Z,59.90
2017-06-27T08:41:28.137Z,58.10
2017-06-27T08:43:55.690Z,59.40
2017-06-27T08:46:23.166Z,58.40
2017-06-27T08:48:51.426Z,57.20
2017-06-27T08:51:18.980Z,57.10
2017-06-27T08:53:46.547Z,57.20
2017-06-27T08:56:14.011Z,59.10
2017-06-27T08:58:41.467Z,57.50
2017-06-27T09:01:09.023Z,58.40
2017-06-27T09:03:36.482Z,57.80
2017-06-27T09:06:04.739Z,57.00
2017-06-27T09:08:32.202Z,57.00
2017-06-27T09:10:59.660Z,57.90
2017-06-27T09:13:27.133Z,57.20
2017-06-27T09:15:55.390Z,58.30
2017-06-27T09:18:22.848Z,58.20
2017-06-27T09:20:50.403Z,57.80
2017-06-27T09:23:17.862Z,59.20
2017-06-27T09:25:45.314Z,55.40
2017-06-27T09:28:12.772Z,56.20
2017-06-27T09:30:40.226Z,56.30
2017-06-27T09:33:07.683Z,57.60
2017-06-27T09:35:35.245Z,56.80
2017-06-27T09:38:02.691Z,56.30
2017-06-27T09:40:30.154Z,55.80
2017-06-27T09:42:57.607Z,55.70
2017-06-27T09:45:25.158Z,54.20
2017-06-27T09:47:52.609Z,56.30
2017-06-27T09:50:20.076Z,56.30
2017-06-27T09:52:47.637Z,55.90
2017-06-27T09:55:15.194Z,56.00
2017-06-27T09:57:42.757Z,56.90
2017-06-27T10:00:10.217Z,57.10
2017-06-27T10:02:37.771Z,56.80
2017-06-27T10:05:05.231Z,58.90
2017-06-27T10:07:32.779Z,60.30
2017-06-27T10:10:00.234Z,60.20
2017-06-27T10:12:27.798Z,58.40
2017-06-27T10:14:55.258Z,59.70
2017-06-27T10:17:22.734Z,59.30
2017-06-27T10:19:50.273Z,57.70
2017-06-27T10:22:17.745Z,58.80
2017-06-27T10:24:45.193Z,58.50
2017-06-27T10:27:13.454Z,58.20
2017-06-27T10:29:40.919Z,58.20
2017-06-27T10:32:08.370Z,56.10
2017-06-27T10:34:35.929Z,56.20
2017-06-27T10:37:03.388Z,55.50
2017-06-27T10:39:30.844Z,53.80
2017-06-27T10:41:58.308Z,56.70
2017-06-27T10:44:25.862Z,56.60
2017-06-27T10:46:53.411Z,53.80
2017-06-27T10:49:20.897Z,54.30
2017-06-27T10:51:49.110Z,52.80
2017-06-27T10:54:16.562Z,52.80
2017-06-27T10:56:44.067Z,53.90
2017-06-27T10:59:11.607Z,54.60
2017-06-27T11:01:39.167Z,54.60
2017-06-27T11:04:06.627Z,53.40
2017-06-27T11:06:34.186Z,54.00
2017-06-27T11:09:01.642Z,54.50
2017-06-27T11:11:29.102Z,51.60
2017-06-27T11:13:56.563Z,53.30
2017-06-27T11:16:24.019Z,54.70
2017-06-27T11:18:51.482Z,53.90
2017-06-27T11:21:19.703Z,54.60
2017-06-27T11:23:47.294Z,54.40
2017-06-27T11:26:14.854Z,53.40
2017-06-27T11:28:42.419Z,51.90
2017-06-27T11:31:09.874Z,52.00
2017-06-27T11:33:37.342Z,51.40
2017-06-27T11:36:04.884Z,52.10
2017-06-27T11:38:32.350Z,52.00
2017-06-27T11:40:59.903Z,53.00
2017-06-27T11:43:27.358Z,52.10
2017-06-27T11:45:54.833Z,55.30
2017-06-27T11:48:22.274Z,50.70
2017-06-27T11:50:49.730Z,50.80
2017-06-27T11:53:17.182Z,51.90
2017-06-27T11:55:44.647Z,52.70
2017-06-27T11:58:12.093Z,50.80
2017-06-27T12:01:04.206Z,49.50
2017-06-27T12:03:43.518Z,50.20
2017-06-27T12:06:17.494Z,51.20
2017-06-27T12:08:57.478Z,48.60
2017-06-27T12:11:24.938Z,48.50
2017-06-27T12:13:52.403Z,48.50
2017-06-27T12:16:19.858Z,49.80
2017-06-27T12:18:47.342Z,53.80
2017-06-27T12:21:14.820Z,49.60
2017-06-27T12:23:43.043Z,48.80
2017-06-27T12:26:10.499Z,48.70
2017-06-27T12:28:37.995Z,51.80
2017-06-27T12:31:05.451Z,50.30
2017-06-27T12:33:32.910Z,52.80
2017-06-27T12:36:00.363Z,53.00
2017-06-27T12:38:27.922Z,52.00
2017-06-27T12:40:55.374Z,50.30
2017-06-27T12:43:22.842Z,50.60
2017-06-27T12:45:50.304Z,50.30
2017-06-27T12:48:17.763Z,49.20
2017-06-27T12:50:45.982Z,50.60
2017-06-27T12:53:13.458Z,50.20
2017-06-27T12:55:40.916Z,51.60
2017-06-27T12:58:08.363Z,51.20
2017-06-27T13:00:35.823Z,51.10
2017-06-27T13:03:03.274Z,51.80
2017-06-27T13:05:30.757Z,52.90
2017-06-27T13:07:58.215Z,51.10
2017-06-27T13:10:25.679Z,50.40
2017-06-27T13:12:53.123Z,53.70
2017-06-27T13:15:20.578Z,52.30
2017-06-27T13:17:48.026Z,53.40
2017-06-27T13:20:15.557Z,53.00
2017-06-27T13:22:43.007Z,53.20
2017-06-27T13:25:10.467Z,55.90
2017-06-27T13:27:37.963Z,55.60
2017-06-27T13:30:05.414Z,56.50
2017-06-27T13:32:32.888Z,56.80
2017-06-27T13:35:01.150Z,58.60
2017-06-27T13:37:28.607Z,58.70
2017-06-27T13:39:56.063Z,58.80
2017-06-27T13:42:23.621Z,59.90
2017-06-27T13:44:51.067Z,61.70
2017-06-27T13:47:18.542Z,62.30
2017-06-27T13:49:45.989Z,63.50
2017-06-27T13:52:13.455Z,65.50
2017-06-27T13:54:41.002Z,69.10
2017-06-27T13:57:08.458Z,66.70
2017-06-27T13:59:35.915Z,68.00
2017-06-27T14:02:04.875Z,76.60
2017-06-27T14:04:32.332Z,76.60
2017-06-27T14:06:59.785Z,71.20
2017-06-27T14:09:27.247Z,70.50
2017-06-27T14:11:54.694Z,66.80
2017-06-27T14:14:22.154Z,59.50
2017-06-27T14:16:49.611Z,60.80
2017-06-27T14:19:17.078Z,59.60
2017-06-27T14:21:44.546Z,62.00
2017-06-27T14:24:12.006Z,63.30
2017-06-27T14:26:39.471Z,62.40
2017-06-27T14:29:07.023Z,61.00
2017-06-27T14:31:34.578Z,64.90
2017-06-27T14:34:02.139Z,61.60
2017-06-27T14:36:29.697Z,59.80
2017-06-27T14:38:57.150Z,61.50
2017-06-27T14:41:24.603Z,60.30
2017-06-27T14:43:52.058Z,59.90
2017-06-27T14:46:19.522Z,58.70
2017-06-27T14:48:46.982Z,58.30
2017-06-27T14:51:14.432Z,59.10
2017-06-27T14:53:41.895Z,61.40
2017-06-27T14:56:09.443Z,62.90
2017-06-27T14:58:36.907Z,62.90
2017-06-27T15:01:04.367Z,62.30
2017-06-27T15:03:31.831Z,62.70
2017-06-27T15:05:59.278Z,62.70
2017-06-27T15:08:26.746Z,62.50
2017-06-27T15:10:54.291Z,61.00
2017-06-27T15:13:21.781Z,60.90
2017-06-27T15:15:49.304Z,60.70
2017-06-27T15:18:16.863Z,61.10
2017-06-27T15:20:44.327Z,61.60
2017-06-27T15:23:11.879Z,62.20
2017-06-27T15:25:39.338Z,62.50
2017-06-27T15:28:06.792Z,61.60
2017-06-27T15:30:34.250Z,61.60
2017-06-27T15:33:01.707Z,61.60
2017-06-27T15:35:29.181Z,61.80
2017-06-27T15:37:57.434Z,60.40
2017-06-27T15:40:24.918Z,60.40
2017-06-27T15:42:53.161Z,64.30
2017-06-27T15:45:20.610Z,64.20
2017-06-27T15:47:48.189Z,64.30
2017-06-27T15:50:15.634Z,66.50
2017-06-27T15:52:43.102Z,68.20
2017-06-27T15:55:10.646Z,69.10
2017-06-27T15:57:38.110Z,69.40
2017-06-27T16:00:05.575Z,72.00
2017-06-27T16:02:33.827Z,71.20
2017-06-27T16:05:01.266Z,71.00
2017-06-27T16:07:28.747Z,71.30
2017-06-27T16:09:56.193Z,73.10
2017-06-27T16:12:23.646Z,72.90
2017-06-27T16:14:51.110Z,73.40
2017-06-27T16:17:18.558Z,72.70
2017-06-27T16:19:46.022Z,71.90
2017-06-27T16:22:13.588Z,72.30
2017-06-27T16:24:41.042Z,72.10
2017-06-27T16:27:08.499Z,71.90
2017-06-27T16:29:35.969Z,71.40
2017-06-27T16:32:03.414Z,70.40
2017-06-27T16:34:30.963Z,69.90
2017-06-27T16:36:58.522Z,64.10
2017-06-27T16:39:25.977Z,64.70
2017-06-27T16:41:53.434Z,64.90
2017-06-27T16:44:20.886Z,62.60
2017-06-27T16:46:48.454Z,62.90
2017-06-27T16:49:15.911Z,59.70
2017-06-27T16:51:43.371Z,60.30
2017-06-27T16:54:15.276Z,59.60
2017-06-27T16:56:42.743Z,58.50
2017-06-27T16:59:10.194Z,58.30
2017-06-27T17:01:37.683Z,58.40
2017-06-27T17:04:05.134Z,58.20
2017-06-27T17:06:32.614Z,57.30
2017-06-27T17:09:00.075Z,56.80
2017-06-27T17:11:27.535Z,57.20
2017-06-27T17:13:54.985Z,58.80
2017-06-27T17:16:22.542Z,60.70
2017-06-27T17:18:50.002Z,61.50
2017-06-27T17:21:17.457Z,62.60
2017-06-27T17:23:44.914Z,63.70
2017-06-27T17:26:12.362Z,64.20
2017-06-27T17:28:39.836Z,63.50
2017-06-27T17:31:08.059Z,68.20
2017-06-27T17:33:36.415Z,68.20
2017-06-27T17:36:03.867Z,68.50
2017-06-27T17:38:31.382Z,66.50
2017-06-27T17:40:58.853Z,66.90
2017-06-27T17:43:26.311Z,67.50
2017-06-27T17:45:54.544Z,68.70
2017-06-27T17:48:22.007Z,68.70
2017-06-27T17:50:49.470Z,71.10
2017-06-27T17:53:16.925Z,75.20
2017-06-27T17:55:44.499Z,75.40
2017-06-27T17:58:11.949Z,77.60
2017-06-27T18:00:39.510Z,78.30
2017-06-27T18:03:07.789Z,78.20
2017-06-27T18:05:35.254Z,80.80
2017-06-27T18:08:02.702Z,84.00
2017-06-27T18:10:30.259Z,83.20
2017-06-27T18:12:57.728Z,82.50
2017-06-27T18:15:25.186Z,81.90
2017-06-27T18:17:53.455Z,80.60
2017-06-27T18:20:20.911Z,79.80
2017-06-27T18:22:48.380Z,78.30
2017-06-27T18:25:15.826Z,78.30
2017-06-27T18:27:43.296Z,75.90
2017-06-27T18:30:11.525Z,76.60
2017-06-27T18:32:38.984Z,76.60
2017-06-27T18:35:06.458Z,78.00
2017-06-27T18:37:33.923Z,80.60
2017-06-27T18:40:01.378Z,83.10
2017-06-27T18:42:28.838Z,86.00
2017-06-27T18:44:56.310Z,86.90
2017-06-27T18:47:24.528Z,87.90
2017-06-27T18:49:51.995Z,87.90
2017-06-27T18:52:19.486Z,88.30
2017-06-27T18:54:47.091Z,88.60
2017-06-27T18:57:14.549Z,89.60
2017-06-27T18:59:42.005Z,90.00
2017-06-27T19:02:09.472Z,90.40
2017-06-27T19:04:36.980Z,91.00
2017-06-27T19:07:04.592Z,91.20
2017-06-27T19:09:32.102Z,91.20
2017-06-27T19:11:59.632Z,91.20
2017-06-27T19:14:27.075Z,91.00
2017-06-27T19:16:54.522Z,91.20
2017-06-27T19:19:21.999Z,91.30
2017-06-27T19:21:49.524Z,91.50
2017-06-27T19:24:16.984Z,93.30
2017-06-27T19:26:45.502Z,93.20
2017-06-27T19:29:13.052Z,94.10
2017-06-27T19:31:40.618Z,94.40
2017-06-27T19:34:08.131Z,93.90
2017-06-27T19:36:35.599Z,93.80
2017-06-27T19:39:03.062Z,93.10
2017-06-27T19:41:30.542Z,93.70
2017-06-27T19:43:58.000Z,94.10
2017-06-27T19:46:26.426Z,94.30
2017-06-27T19:48:53.936Z,93.80
2017-06-27T19:51:21.394Z,93.60
2017-06-27T19:53:48.851Z,94.10
2017-06-27T19:56:16.306Z,94.00
2017-06-27T19:58:43.770Z,93.60
2017-06-27T20:01:11.996Z,93.80
2017-06-27T20:03:39.456Z,93.70
2017-06-27T20:06:06.912Z,94.00
2017-06-27T20:08:34.390Z,94.40
2017-06-27T20:11:01.851Z,94.40
2017-06-27T20:13:29.307Z,94.90
2017-06-27T20:15:56.774Z,95.00
2017-06-27T20:18:24.230Z,94.50
2017-06-27T20:20:51.694Z,94.10
2017-06-27T20:23:19.216Z,94.30
2017-06-27T20:25:46.678Z,94.10
2017-06-27T20:28:14.163Z,93.70
2017-06-27T20:30:41.775Z,94.60
2017-06-27T20:33:17.063Z,94.20
2017-06-27T20:35:44.583Z,94.50
2017-06-27T20:38:12.089Z,94.80
2017-06-27T20:40:39.559Z,93.60
2017-06-27T20:43:07.839Z,93.40
2017-06-27T20:45:36.081Z,92.90
2017-06-27T20:48:03.556Z,92.90
2017-06-27T20:50:31.065Z,93.50
2017-06-27T20:52:58.597Z,93.30
2017-06-27T20:55:26.042Z,93.30
2017-06-27T20:57:53.506Z,93.30
2017-06-27T21:00:21.085Z,93.20
2017-06-27T21:02:48.602Z,93.00
2017-06-27T21:05:16.876Z,93.50
2017-06-27T21:07:45.135Z,93.30
2017-06-27T21:10:12.690Z,92.90
2017-06-27T21:12:40.237Z,93.00
2017-06-27T21:15:07.706Z,93.80
2017-06-27T21:17:35.266Z,93.70
2017-06-27T21:20:02.879Z,93.40
2017-06-27T21:22:30.389Z,93.80
2017-06-27T21:24:57.944Z,93.10
2017-06-27T21:27:25.479Z,93.20
2017-06-27T21:29:52.939Z,93.30
2017-06-27T21:32:20.402Z,93.40
2017-06-27T21:34:47.867Z,93.60
2017-06-27T21:37:15.318Z,93.90
2017-06-27T21:39:42.793Z,94.00
2017-06-27T21:42:11.038Z,96.30
2017-06-27T21:44:38.505Z,96.20
2017-06-27T21:47:05.955Z,96.50
2017-06-27T21:49:33.443Z,97.60
2017-06-27T21:52:01.668Z,98.70
2017-06-27T21:54:29.132Z,98.60
2017-06-27T21:56:56.596Z,98.80
2017-06-27T22:02:36.768Z,97.30
2017-06-27T22:05:04.231Z,98.00
2017-06-27T22:07:31.731Z,98.60
2017-06-27T22:09:59.931Z,99.60
2017-06-27T22:12:27.407Z,99.20
2017-06-27T22:14:54.875Z,99.90
2017-06-27T22:17:22.350Z,99.70
2017-06-27T22:19:49.806Z,99.90
2017-06-27T22:22:17.271Z,99.90
2017-06-27T22:24:45.502Z,99.80
2017-06-27T22:27:12.990Z,99.50
2017-06-27T22:29:40.554Z,99.50
2017-06-27T22:32:08.010Z,99.80
2017-06-27T22:34:35.470Z,99.80
2017-06-27T22:37:03.694Z,99.50
2017-06-27T22:39:31.163Z,99.50
2017-06-27T22:41:58.634Z,99.60
2017-06-27T22:44:26.113Z,99.30
2017-06-27T22:46:53.566Z,99.20
2017-06-27T22:49:21.797Z,99.00
2017-06-27T22:51:49.283Z,99.00
2017-06-27T22:54:16.841Z,99.00
2017-06-27T22:56:44.393Z,99.20
2017-06-27T22:59:11.870Z,99.50
2017-06-27T23:01:39.331Z,99.90
2017-06-27T23:04:07.590Z,99.90
2017-06-27T23:06:35.070Z,99.90
2017-06-27T23:09:03.299Z,99.60
2017-06-27T23:11:30.771Z,99.60
2017-06-27T23:13:58.235Z,99.00
2017-06-27T23:16:25.790Z,98.80
2017-06-27T23:18:53.261Z,98.60
2017-06-27T23:21:20.730Z,98.20
2017-06-27T23:23:48.962Z,98.70
2017-06-27T23:26:16.533Z,98.70
2017-06-27T23:28:43.987Z,98.20
2017-06-27T23:31:11.482Z,97.70
2017-06-27T23:33:39.726Z,97.80
2017-06-27T23:36:07.181Z,97.80
2017-06-27T23:38:34.744Z,98.10
2017-06-27T23:41:02.303Z,98.60
2017-06-27T23:43:29.766Z,98.90
2017-06-27T23:45:57.995Z,99.20
2017-06-27T23:48:25.476Z,99.40
2017-06-27T23:50:52.934Z,99.90
2017-06-27T23:53:20.403Z,99.90
2017-06-27T23:55:47.866Z,99.90
2017-06-27T23:58:16.132Z,99.60
